Terminal Aerodrome Forecast
Issued by NWS

Home | Current Version | Previous Version | Graphics & Text | Print | Product List | Glossary On
Versions: 1 2 3 4 5 6 7 8 9 10 11 12 13 14 15 16 17 18 19 20 21 22
071
FTUS41 KCLE 162320
TAFFDY
TAF
KFDY 162320Z 1700/1724 30005KT P6SM OVC030
      TEMPO 1708/1712 OVC035
     FM171300 15009KT P6SM OVC035
     FM171900 16012KT P6SM BKN150=

USA.gov is the U.S. government's official web portal to all federal, state and local government web resources and services.